createdAt,value
2018-06-20T00:00:33.160Z,2.00
2018-06-20T00:03:01.606Z,1.92
2018-06-20T00:05:30.061Z,2.20
2018-06-20T00:07:58.476Z,1.95
2018-06-20T00:10:26.961Z,2.08
2018-06-20T00:12:55.366Z,2.30
2018-06-20T00:15:23.801Z,2.17
2018-06-20T00:17:52.221Z,2.47
2018-06-20T00:20:20.662Z,2.12
2018-06-20T00:22:49.083Z,2.33
2018-06-20T00:25:17.565Z,2.40
2018-06-20T00:27:45.968Z,2.60
2018-06-20T00:30:14.414Z,2.80
2018-06-20T00:32:42.901Z,2.22
2018-06-20T00:35:11.427Z,2.30
2018-06-20T00:37:39.856Z,1.87
2018-06-20T00:40:08.329Z,2.47
2018-06-20T00:42:36.738Z,2.40
2018-06-20T00:45:05.421Z,2.30
2018-06-20T00:47:34.007Z,2.22
2018-06-20T00:50:02.497Z,2.10
2018-06-20T00:52:30.944Z,1.70
2018-06-20T00:54:59.378Z,2.20
2018-06-20T00:57:27.785Z,2.72
2018-06-20T00:59:56.233Z,2.42
2018-06-20T01:02:24.721Z,2.35
2018-06-20T01:04:53.166Z,1.90
2018-06-20T01:07:21.807Z,2.70
2018-06-20T01:09:50.237Z,2.77
2018-06-20T01:12:18.760Z,2.37
2018-06-20T01:14:47.202Z,2.33
2018-06-20T01:17:15.620Z,2.50
2018-06-20T01:19:44.983Z,3.87
2018-06-20T01:22:13.389Z,2.75
2018-06-20T01:24:41.807Z,2.70
2018-06-20T01:27:10.241Z,2.42
2018-06-20T01:29:38.705Z,3.05
2018-06-20T01:32:07.166Z,2.90
2018-06-20T01:34:35.604Z,2.58
2018-06-20T01:37:04.060Z,2.72
2018-06-20T01:39:32.493Z,2.33
2018-06-20T01:42:00.941Z,2.37
2018-06-20T01:44:29.422Z,2.72
2018-06-20T01:46:57.885Z,2.50
2018-06-20T01:49:26.310Z,2.58
2018-06-20T01:51:54.756Z,2.17
2018-06-20T01:54:23.037Z,2.27
2018-06-20T01:56:51.563Z,2.00
2018-06-20T01:59:19.980Z,2.25
2018-06-20T02:01:48.171Z,2.27
2018-06-20T02:04:16.612Z,2.25
2018-06-20T02:06:45.089Z,2.55
2018-06-20T02:09:13.493Z,1.95
2018-06-20T02:11:41.647Z,2.35
2018-06-20T02:14:10.060Z,2.20
2018-06-20T02:16:38.516Z,2.77
2018-06-20T02:19:07.048Z,2.30
2018-06-20T02:21:35.484Z,2.27
2018-06-20T02:24:03.952Z,2.72
2018-06-20T02:26:32.100Z,2.08
2018-06-20T02:29:00.540Z,2.27
2018-06-20T02:31:29.179Z,2.60
2018-06-20T02:33:57.296Z,2.65
2018-06-20T02:36:31.862Z,2.42
2018-06-20T02:39:01.027Z,2.35
2018-06-20T02:41:29.677Z,2.05
2018-06-20T02:43:58.092Z,2.47
2018-06-20T02:46:26.557Z,2.08
2018-06-20T02:48:55.076Z,2.75
2018-06-20T02:51:23.538Z,2.52
2018-06-20T02:53:51.964Z,2.30
2018-06-20T02:56:20.414Z,3.05
2018-06-20T02:58:48.820Z,2.83
2018-06-20T03:01:17.266Z,2.50
2018-06-20T03:03:45.778Z,2.85
2018-06-20T03:06:14.267Z,2.20
2018-06-20T03:08:42.682Z,2.72
2018-06-20T03:11:11.168Z,2.02
2018-06-20T03:13:39.300Z,2.30
2018-06-20T03:16:07.708Z,2.15
2018-06-20T03:18:36.137Z,1.85
2018-06-20T03:21:04.897Z,2.17
2018-06-20T03:23:33.344Z,2.20
2018-06-20T03:26:01.945Z,2.70
2018-06-20T03:28:30.384Z,2.85
2018-06-20T03:30:58.806Z,2.60
2018-06-20T03:33:26.940Z,2.47
2018-06-20T03:35:55.336Z,2.42
2018-06-20T03:38:23.492Z,2.67
2018-06-20T03:40:51.917Z,2.45
2018-06-20T03:43:20.360Z,2.20
2018-06-20T03:45:48.447Z,2.17
2018-06-20T03:48:16.875Z,2.70
2018-06-20T03:50:45.434Z,1.98
2018-06-20T03:53:13.949Z,1.77
2018-06-20T03:55:42.364Z,2.02
2018-06-20T03:58:10.800Z,2.20
2018-06-20T04:00:39.416Z,1.70
2018-06-20T04:03:07.877Z,1.70
2018-06-20T04:05:36.289Z,2.10
2018-06-20T04:08:05.036Z,2.05
2018-06-20T04:10:33.481Z,2.37
2018-06-20T04:13:01.940Z,2.20
2018-06-20T04:15:30.349Z,2.80
2018-06-20T04:17:58.814Z,2.60
2018-06-20T04:20:26.968Z,2.55
2018-06-20T04:22:55.427Z,2.65
2018-06-20T04:25:23.975Z,2.83
2018-06-20T04:27:52.447Z,2.62
2018-06-20T04:30:20.885Z,2.87
2018-06-20T04:32:49.338Z,2.72
2018-06-20T04:35:17.761Z,2.50
2018-06-20T04:37:46.276Z,2.77
2018-06-20T04:40:14.717Z,2.25
2018-06-20T04:42:43.173Z,2.52
2018-06-20T04:45:11.905Z,2.80
2018-06-20T04:47:40.104Z,3.30
2018-06-20T04:50:08.548Z,2.20
2018-06-20T04:52:37.000Z,2.47
2018-06-20T04:55:05.540Z,2.50
2018-06-20T04:57:34.085Z,2.72
2018-06-20T05:00:02.554Z,2.40
2018-06-20T05:02:31.012Z,2.30
2018-06-20T05:04:59.446Z,2.15
2018-06-20T05:07:28.090Z,2.40
2018-06-20T05:09:56.541Z,2.12
2018-06-20T05:12:25.002Z,3.15
2018-06-20T05:14:53.504Z,2.12
2018-06-20T05:17:21.944Z,1.87
2018-06-20T05:19:50.435Z,2.85
2018-06-20T05:22:18.968Z,2.40
2018-06-20T05:24:47.487Z,2.52
2018-06-20T05:27:15.933Z,2.77
2018-06-20T05:29:44.414Z,2.50
2018-06-20T05:32:12.845Z,2.27
2018-06-20T05:34:41.276Z,2.30
2018-06-20T05:37:09.793Z,2.10
2018-06-20T05:39:38.244Z,2.87
2018-06-20T05:42:06.702Z,2.20
2018-06-20T05:44:35.172Z,2.08
2018-06-20T05:47:03.593Z,2.27
2018-06-20T05:49:32.097Z,2.17
2018-06-20T05:52:00.523Z,2.27
2018-06-20T05:54:29.007Z,2.45
2018-06-20T05:56:57.412Z,2.72
2018-06-20T05:59:25.868Z,2.60
2018-06-20T06:01:54.313Z,1.90
2018-06-20T06:04:22.763Z,2.05
2018-06-20T06:06:51.180Z,2.10
2018-06-20T06:09:19.620Z,2.47
2018-06-20T06:11:48.072Z,2.27
2018-06-20T06:14:16.524Z,2.05
2018-06-20T06:16:44.963Z,2.02
2018-06-20T06:19:13.405Z,1.62
2018-06-20T06:21:42.025Z,1.42
2018-06-20T06:24:10.504Z,2.02
2018-06-20T06:26:38.928Z,1.32
2018-06-20T06:29:07.673Z,1.70
2018-06-20T06:31:36.121Z,1.55
2018-06-20T06:34:04.605Z,1.80
2018-06-20T06:36:33.046Z,1.55
2018-06-20T06:39:01.474Z,1.42
2018-06-20T06:41:29.913Z,1.42
2018-06-20T06:43:58.375Z,1.40
2018-06-20T06:46:26.818Z,1.55
2018-06-20T06:48:56.041Z,1.50
2018-06-20T06:51:24.582Z,1.37
2018-06-20T06:53:53.013Z,1.50
2018-06-20T06:56:21.519Z,1.47
2018-06-20T06:58:49.994Z,1.52
2018-06-20T07:01:18.440Z,1.50
2018-06-20T07:03:47.056Z,1.50
2018-06-20T07:06:15.521Z,1.60
2018-06-20T07:08:44.032Z,1.50
2018-06-20T07:11:12.480Z,1.57
2018-06-20T07:13:40.986Z,1.60
2018-06-20T07:16:09.140Z,1.62
2018-06-20T07:18:37.639Z,1.60
2018-06-20T07:21:06.452Z,1.22
2018-06-20T07:23:34.879Z,1.20
2018-06-20T07:26:03.055Z,1.05
2018-06-20T07:28:31.480Z,1.30
2018-06-20T07:31:00.041Z,1.20
2018-06-20T07:33:28.563Z,1.70
2018-06-20T07:35:57.322Z,1.17
2018-06-20T07:38:25.710Z,1.10
2018-06-20T07:40:54.151Z,1.17
2018-06-20T07:43:22.668Z,1.15
2018-06-20T07:45:51.132Z,1.20
2018-06-20T07:48:19.555Z,1.15
2018-06-20T07:50:48.267Z,1.22
2018-06-20T07:53:16.641Z,1.00
2018-06-20T07:55:45.249Z,1.20
2018-06-20T07:58:19.082Z,0.90
2018-06-20T08:00:52.896Z,1.10
2018-06-20T08:03:26.677Z,1.20
2018-06-20T08:06:00.505Z,0.90
2018-06-20T08:08:34.285Z,1.10
2018-06-20T08:11:08.012Z,0.90
2018-06-20T08:13:41.752Z,1.15
2018-06-20T08:16:15.577Z,1.02
2018-06-20T08:18:49.261Z,1.17
2018-06-20T08:21:17.681Z,1.00
2018-06-20T08:23:46.104Z,1.10
2018-06-20T08:26:14.697Z,1.10
2018-06-20T08:28:43.124Z,1.20
2018-06-20T08:31:11.586Z,1.17
2018-06-20T08:33:39.993Z,1.25
2018-06-20T08:36:08.540Z,1.05
2018-06-20T08:38:36.963Z,0.90
2018-06-20T08:41:05.510Z,0.78
2018-06-20T08:43:33.917Z,1.30
2018-06-20T08:46:02.348Z,1.25
2018-06-20T08:48:30.829Z,1.07
2018-06-20T08:50:59.228Z,0.80
2018-06-20T08:53:27.688Z,0.65
2018-06-20T08:55:56.097Z,0.60
2018-06-20T08:58:24.279Z,0.80
2018-06-20T09:00:57.993Z,0.57
2018-06-20T09:03:26.577Z,0.70
2018-06-20T09:06:00.176Z,0.53
2018-06-20T09:08:34.040Z,0.70
2018-06-20T09:11:07.846Z,0.53
2018-06-20T09:13:41.255Z,0.60
2018-06-20T09:16:15.060Z,0.70
2018-06-20T09:18:48.881Z,0.60
2018-06-20T09:21:17.323Z,0.50
2018-06-20T09:23:45.776Z,0.62
2018-06-20T09:26:14.189Z,0.50
2018-06-20T09:28:42.620Z,0.60
2018-06-20T09:31:11.043Z,0.45
2018-06-20T09:33:39.516Z,0.30
2018-06-20T09:36:08.192Z,0.78
2018-06-20T09:38:36.727Z,0.35
2018-06-20T09:41:05.105Z,0.40
2018-06-20T09:43:33.536Z,0.40
2018-06-20T09:46:01.976Z,0.57
2018-06-20T09:48:30.465Z,0.30
2018-06-20T09:50:59.757Z,0.53
2018-06-20T09:53:28.396Z,0.60
2018-06-20T09:55:56.808Z,0.55
2018-06-20T09:58:25.253Z,0.60
2018-06-20T10:00:59.004Z,0.40
2018-06-20T10:03:32.704Z,0.50
2018-06-20T10:06:06.313Z,0.50
2018-06-20T10:08:39.839Z,0.62
2018-06-20T10:11:13.582Z,0.90
2018-06-20T10:13:46.114Z,0.60
2018-06-20T10:16:14.668Z,0.62
2018-06-20T10:18:43.109Z,0.50
2018-06-20T10:21:11.637Z,0.62
2018-06-20T10:23:40.261Z,0.50
2018-06-20T10:26:08.781Z,0.50
2018-06-20T10:28:37.248Z,0.50
2018-06-20T10:31:05.697Z,0.60
2018-06-20T10:33:34.137Z,0.60
2018-06-20T10:36:02.557Z,0.65
2018-06-20T10:38:30.989Z,1.20
2018-06-20T10:40:59.452Z,1.30
2018-06-20T10:43:27.894Z,0.72
2018-06-20T10:46:01.719Z,0.62
2018-06-20T10:48:30.213Z,0.90
2018-06-20T10:50:58.641Z,0.70
2018-06-20T10:53:27.103Z,0.60
2018-06-20T10:55:55.613Z,0.70
2018-06-20T10:58:29.300Z,0.90
2018-06-20T11:01:03.073Z,0.72
2018-06-20T11:03:36.843Z,0.90
2018-06-20T11:06:10.508Z,0.78
2018-06-20T11:08:44.303Z,0.70
2018-06-20T11:11:18.041Z,0.65
2018-06-20T11:13:48.094Z,0.70
2018-06-20T11:16:16.676Z,0.50
2018-06-20T11:18:48.775Z,0.70
2018-06-20T11:21:17.184Z,0.62
2018-06-20T11:23:45.621Z,0.78
2018-06-20T11:26:14.010Z,0.90
2018-06-20T11:28:42.421Z,0.65
2018-06-20T11:31:10.903Z,0.60
2018-06-20T11:33:39.300Z,0.68
2018-06-20T11:36:07.829Z,0.75
2018-06-20T11:38:36.289Z,0.70
2018-06-20T11:41:04.733Z,0.85
2018-06-20T11:43:33.176Z,0.72
2018-06-20T11:46:07.106Z,0.60
2018-06-20T11:48:35.525Z,0.70
2018-06-20T11:51:04.007Z,0.78
2018-06-20T11:53:32.407Z,0.80
2018-06-20T11:56:00.872Z,0.68
2018-06-20T11:58:34.580Z,0.78
2018-06-20T12:01:08.110Z,0.60
2018-06-20T12:04:41.516Z,0.55
2018-06-20T12:09:18.220Z,0.80
2018-06-20T12:11:51.964Z,0.80
2018-06-20T12:14:25.621Z,0.60
2018-06-20T12:16:53.329Z,0.80
2018-06-20T12:19:27.162Z,0.80
2018-06-20T12:22:01.030Z,0.98
2018-06-20T12:24:34.653Z,0.70
2018-06-20T12:27:08.357Z,0.78
2018-06-20T12:29:41.900Z,0.60
2018-06-20T12:32:15.797Z,0.72
2018-06-20T12:34:49.542Z,0.60
2018-06-20T12:37:23.333Z,0.50
2018-06-20T12:39:55.953Z,0.78
2018-06-20T12:42:29.843Z,0.70
2018-06-20T12:45:06.131Z,0.78
2018-06-20T12:47:40.244Z,0.70
2018-06-20T12:50:11.769Z,0.60
2018-06-20T12:52:40.241Z,0.65
2018-06-20T12:55:08.705Z,0.60
2018-06-20T12:57:38.033Z,0.70
2018-06-20T13:00:06.475Z,0.53
2018-06-20T13:02:34.957Z,0.78
2018-06-20T13:05:03.457Z,0.70
2018-06-20T13:07:31.905Z,0.60
2018-06-20T13:10:00.350Z,0.70
2018-06-20T13:12:28.864Z,0.50
2018-06-20T13:14:57.280Z,0.60
2018-06-20T13:17:26.053Z,0.70
2018-06-20T13:19:54.599Z,0.98
2018-06-20T13:22:23.195Z,0.60
2018-06-20T13:24:51.864Z,0.60
2018-06-20T13:27:25.500Z,0.70
2018-06-20T13:29:59.248Z,0.82
2018-06-20T13:32:33.132Z,0.60
2018-06-20T13:35:06.832Z,0.78
2018-06-20T13:39:45.801Z,0.93
2018-06-20T13:43:17.922Z,0.70
2018-06-20T13:45:51.697Z,0.70
2018-06-20T13:48:27.549Z,0.98
2018-06-20T13:50:55.978Z,0.88
2018-06-20T13:53:24.460Z,0.80
2018-06-20T13:55:52.922Z,0.80
2018-06-20T13:58:21.372Z,0.85
2018-06-20T14:00:49.911Z,0.78
2018-06-20T14:03:18.442Z,0.93
2018-06-20T14:05:46.913Z,0.95
2018-06-20T14:08:15.385Z,1.07
2018-06-20T14:10:43.800Z,0.93
2018-06-20T14:13:12.280Z,0.95
2018-06-20T14:15:41.061Z,0.80
2018-06-20T14:18:09.700Z,0.85
2018-06-20T14:20:43.356Z,1.00
2018-06-20T14:23:11.805Z,1.00
2018-06-20T14:25:40.255Z,1.00
2018-06-20T14:28:08.742Z,0.90
2018-06-20T14:30:42.539Z,0.80
2018-06-20T14:33:16.289Z,1.00
2018-06-20T14:35:49.992Z,1.15
2018-06-20T14:38:23.765Z,1.02
2018-06-20T14:40:57.604Z,1.00
2018-06-20T14:43:31.337Z,0.98
2018-06-20T14:46:05.038Z,1.00
2018-06-20T14:48:33.451Z,1.00
2018-06-20T14:51:01.872Z,1.40
2018-06-20T14:53:30.315Z,0.82
2018-06-20T14:55:58.760Z,1.20
2018-06-20T14:58:27.220Z,1.22
2018-06-20T15:00:55.790Z,1.10
2018-06-20T15:03:24.185Z,1.10
2018-06-20T15:05:52.637Z,0.98
2018-06-20T15:08:21.095Z,0.98
2018-06-20T15:10:49.583Z,1.27
2018-06-20T15:13:18.150Z,1.30
2018-06-20T15:15:46.593Z,1.25
2018-06-20T15:18:15.312Z,1.00
2018-06-20T15:20:43.815Z,1.20
2018-06-20T15:23:12.240Z,1.82
2018-06-20T15:25:40.745Z,1.35
2018-06-20T15:28:14.429Z,1.02
2018-06-20T15:30:48.149Z,1.17
2018-06-20T15:33:21.968Z,1.00
2018-06-20T15:35:55.764Z,0.98
2018-06-20T15:38:25.711Z,1.05
2018-06-20T15:40:54.259Z,1.22
2018-06-20T15:43:22.731Z,1.20
2018-06-20T15:45:51.261Z,1.50
2018-06-20T15:48:19.689Z,1.17
2018-06-20T15:50:48.138Z,1.50
2018-06-20T15:53:16.582Z,1.20
2018-06-20T15:55:45.240Z,1.17
2018-06-20T15:58:13.775Z,1.07
2018-06-20T16:00:42.260Z,1.22
2018-06-20T16:03:10.790Z,1.35
2018-06-20T16:05:39.292Z,1.10
2018-06-20T16:08:07.745Z,1.00
2018-06-20T16:10:36.189Z,1.00
2018-06-20T16:13:04.672Z,1.02
2018-06-20T16:15:33.156Z,1.10
2018-06-20T16:18:01.731Z,0.95
2018-06-20T16:20:35.648Z,1.02
2018-06-20T16:23:09.509Z,1.00
2018-06-20T16:25:43.348Z,1.12
2018-06-20T16:28:17.230Z,2.00
2018-06-20T16:30:46.474Z,2.40
2018-06-20T16:33:14.966Z,1.07
2018-06-20T16:35:43.404Z,1.30
2018-06-20T16:38:11.581Z,1.00
2018-06-20T16:40:40.493Z,1.10
2018-06-20T16:43:09.096Z,1.05
2018-06-20T16:45:38.247Z,1.30
2018-06-20T16:48:07.405Z,1.20
2018-06-20T16:50:36.190Z,1.20
2018-06-20T16:53:05.055Z,1.02
2018-06-20T16:55:34.427Z,1.30
2018-06-20T16:58:03.583Z,1.10
2018-06-20T17:00:32.660Z,1.00
2018-06-20T17:03:01.172Z,0.98
2018-06-20T17:05:29.656Z,1.00
2018-06-20T17:07:58.104Z,1.07
2018-06-20T17:10:26.548Z,1.20
2018-06-20T17:13:00.253Z,1.00
2018-06-20T17:15:33.909Z,1.20
2018-06-20T17:18:07.478Z,1.22
2018-06-20T17:20:41.329Z,1.77
2018-06-20T17:23:15.258Z,1.05
2018-06-20T17:25:43.677Z,1.20
2018-06-20T17:28:11.833Z,1.32
2018-06-20T17:30:40.396Z,1.40
2018-06-20T17:33:08.852Z,1.00
2018-06-20T17:35:37.277Z,1.05
2018-06-20T17:38:05.837Z,1.37
2018-06-20T17:40:34.269Z,0.98
2018-06-20T17:43:02.746Z,1.10
2018-06-20T17:45:31.172Z,1.12
2018-06-20T17:47:59.619Z,1.77
2018-06-20T17:50:28.148Z,1.20
2018-06-20T17:52:56.596Z,1.00
2018-06-20T17:55:25.022Z,1.27
2018-06-20T17:57:53.474Z,1.10
2018-06-20T18:00:21.907Z,1.10
2018-06-20T18:02:50.411Z,1.10
2018-06-20T18:05:24.578Z,1.17
2018-06-20T18:07:58.360Z,1.10
2018-06-20T18:10:32.185Z,1.10
2018-06-20T18:13:04.493Z,1.30
2018-06-20T18:15:38.364Z,1.02
2018-06-20T18:18:07.125Z,0.93
2018-06-20T18:20:35.552Z,1.22
2018-06-20T18:23:04.418Z,1.00
2018-06-20T18:25:32.952Z,1.10
2018-06-20T18:28:01.449Z,1.20
2018-06-20T18:30:29.901Z,1.17
2018-06-20T18:32:58.037Z,0.90
2018-06-20T18:35:26.473Z,1.20
2018-06-20T18:37:56.632Z,1.52
2018-06-20T18:40:25.387Z,1.25
2018-06-20T18:42:55.338Z,1.20
2018-06-20T18:45:23.870Z,1.00
2018-06-20T18:47:57.650Z,1.07
2018-06-20T18:50:26.781Z,0.93
2018-06-20T18:52:55.218Z,1.05
2018-06-20T18:55:23.764Z,1.30
2018-06-20T18:57:58.109Z,1.22
2018-06-20T19:02:40.196Z,1.47
2018-06-20T19:05:13.840Z,1.30
2018-06-20T19:07:47.821Z,1.35
2018-06-20T19:10:16.277Z,1.20
2018-06-20T19:12:44.784Z,1.32
2018-06-20T19:15:13.462Z,1.10
2018-06-20T19:17:41.929Z,1.20
2018-06-20T19:20:10.437Z,1.30
2018-06-20T19:22:38.885Z,1.40
2018-06-20T19:25:07.520Z,1.55
2018-06-20T19:27:35.977Z,1.25
2018-06-20T19:30:04.561Z,1.45
2018-06-20T19:32:33.104Z,1.32
2018-06-20T19:35:01.554Z,1.52
2018-06-20T19:37:30.007Z,1.37
2018-06-20T19:39:58.485Z,1.52
2018-06-20T19:42:26.960Z,1.32
2018-06-20T19:44:55.499Z,1.85
2018-06-20T19:47:23.860Z,1.45
2018-06-20T19:49:52.277Z,1.70
2018-06-20T19:52:20.770Z,1.50
2018-06-20T19:54:49.209Z,1.27
2018-06-20T19:57:17.712Z,1.37
2018-06-20T19:59:46.098Z,1.98
2018-06-20T20:02:14.577Z,1.70
2018-06-20T20:04:43.056Z,1.75
2018-06-20T20:07:11.752Z,2.33
2018-06-20T20:09:40.236Z,2.50
2018-06-20T20:12:08.657Z,3.60
2018-06-20T20:14:37.089Z,3.12
2018-06-20T20:17:05.902Z,2.50
2018-06-20T20:19:34.428Z,1.90
2018-06-20T20:22:02.884Z,2.00
2018-06-20T20:24:31.037Z,2.67
2018-06-20T20:26:59.512Z,2.62
2018-06-20T20:29:27.927Z,2.67
2018-06-20T20:31:56.401Z,4.12
2018-06-20T20:34:24.841Z,3.75
2018-06-20T20:36:53.346Z,3.17
2018-06-20T20:39:21.768Z,2.67
2018-06-20T20:41:50.218Z,2.85
2018-06-20T20:44:18.649Z,3.27
2018-06-20T20:46:46.839Z,3.12
2018-06-20T20:49:15.268Z,2.90
2018-06-20T20:51:43.704Z,2.92
2018-06-20T20:54:12.168Z,2.70
2018-06-20T20:56:40.604Z,2.67
2018-06-20T20:59:09.176Z,3.50
2018-06-20T21:01:37.488Z,4.00
2018-06-20T21:04:05.985Z,3.87
2018-06-20T21:06:34.177Z,3.08
2018-06-20T21:09:02.705Z,4.10
2018-06-20T21:11:32.493Z,3.05
2018-06-20T21:14:01.864Z,3.00
2018-06-20T21:16:30.836Z,4.37
2018-06-20T21:18:59.644Z,3.58
2018-06-20T21:21:28.820Z,3.22
2018-06-20T21:23:57.937Z,3.12
2018-06-20T21:26:26.352Z,2.58
2018-06-20T21:28:55.084Z,2.65
2018-06-20T21:31:23.961Z,2.70
2018-06-20T21:33:52.561Z,2.70
2018-06-20T21:36:21.219Z,2.72
2018-06-20T21:38:49.676Z,2.67
2018-06-20T21:41:18.116Z,3.10
2018-06-20T21:43:46.574Z,3.55
2018-06-20T21:46:15.057Z,2.85
2018-06-20T21:48:43.497Z,3.33
2018-06-20T21:51:12.686Z,2.80
2018-06-20T21:53:41.168Z,2.80
2018-06-20T21:56:09.595Z,2.92
2018-06-20T21:58:38.151Z,2.65
2018-06-20T22:01:06.584Z,2.83
2018-06-20T22:03:35.341Z,2.58
2018-06-20T22:06:03.782Z,2.47
2018-06-20T22:08:32.334Z,2.77
2018-06-20T22:11:00.761Z,2.98
2018-06-20T22:13:29.177Z,2.67
2018-06-20T22:15:57.681Z,3.40
2018-06-20T22:18:26.082Z,3.25
2018-06-20T22:20:54.528Z,2.95
2018-06-20T22:23:22.669Z,2.70
2018-06-20T22:25:51.141Z,2.87
2018-06-20T22:28:19.581Z,3.12
2018-06-20T22:30:48.055Z,2.95
2018-06-20T22:33:16.512Z,3.40
2018-06-20T22:35:45.216Z,3.08
2018-06-20T22:38:13.631Z,2.90
2018-06-20T22:40:42.084Z,2.42
2018-06-20T22:43:10.491Z,2.72
2018-06-20T22:45:38.940Z,2.70
2018-06-20T22:48:07.798Z,3.27
2018-06-20T22:50:36.246Z,3.00
2018-06-20T22:53:04.881Z,2.62
2018-06-20T22:55:33.444Z,2.58
2018-06-20T22:58:01.570Z,3.05
2018-06-20T23:00:30.015Z,2.58
2018-06-20T23:02:58.488Z,3.08
2018-06-20T23:05:26.932Z,2.98
2018-06-20T23:07:55.429Z,2.58
2018-06-20T23:10:24.271Z,2.95
2018-06-20T23:12:52.751Z,2.75
2018-06-20T23:15:21.219Z,2.10
2018-06-20T23:17:49.643Z,2.60
2018-06-20T23:20:18.069Z,3.05
2018-06-20T23:22:46.506Z,2.75
2018-06-20T23:25:14.664Z,2.67
2018-06-20T23:27:43.134Z,2.72
2018-06-20T23:30:11.553Z,2.50
2018-06-20T23:32:39.989Z,2.83
2018-06-20T23:35:08.413Z,2.75
2018-06-20T23:37:36.848Z,2.75
2018-06-20T23:40:05.296Z,2.52
2018-06-20T23:42:33.823Z,2.60
2018-06-20T23:45:02.241Z,2.83
2018-06-20T23:47:30.683Z,2.77
2018-06-20T23:49:59.089Z,3.00
2018-06-20T23:52:27.536Z,2.95
2018-06-20T23:54:56.062Z,2.80
2018-06-20T23:57:24.512Z,3.20
2018-06-20T23:59:53.133Z,3.15
